Details From KVNY - Van Nuys
To KGYR - Phoenix Goodyear
Flight Number -
Tags Decoded
Created
Modified
Stats Distance 311 nm / 576 km
Max Altitude 0 ft / 0 m
Waypoints 9
Social Downloads 4
Likes 0
Share VATSIM

Download

Looking for another format? Having issues loading an existing format? Contact us
Advertisement - Login to hide

Notes

Decoded

Route

KVNY ADAMM PDZ GARNE PSP BLH BXK PERKY KGYR

ID Type Via Altitude Latitude Longitude Leg Dist Tot Dist Heading (true) Name
O KVNY APT - 0 ft / 0 m 34.21899˚ -118.49000˚ - 0 nm - -
ADAMM FIX - 0 ft / 0 m 34.01706˚ -117.81681˚ 35 nm 35 nm 110° / 110° -
PDZ VOR - 0 ft / 0 m 33.91833˚ -117.53000˚ 15 nm 51 nm 112° / 113° PARADISE VORTAC
GARNE FIX - 0 ft / 0 m 33.87671˚ -116.56965˚ 47 nm 99 nm 93° / 93° -
PSP VOR - 0 ft / 0 m 33.87003˚ -116.42978˚ 6 nm 105 nm 93° / 93° PALM SPRINGS VORTAC
BLH VOR - 0 ft / 0 m 33.59606˚ -114.76119˚ 84 nm 190 nm 101° / 102° BLYTHE VORTAC
BXK VOR - 0 ft / 0 m 33.45344˚ -112.82458˚ 97 nm 288 nm 95° / 96° BUCKEYE VORTAC
PERKY FIX - 0 ft / 0 m 33.44576˚ -112.47317˚ 17 nm 305 nm 91° / 92° -
O KGYR APT - 0 ft / 0 m 33.41472˚ -112.38334˚ 4 nm 310 nm 112° / 113° -

Altitude Profile

Advertisement - Login to hide

Weather


0- 5 10 15 20 25 30 35+ Temperature / ° C

Clouds and Precipitation
Forecast for 2017-12-13 18:00 UTC. Updated 4 minutes ago

Ground ~20,000 ft ~40,000 ft Winds

KVNY

Details ICAO KVNY (VNY)
Name Van Nuys
Region United States
Timezone America/Los_Angeles (UTC-8.0)
Stats Elevation 802 ft / 244 m (AMSL)
Location 34.210723° -118.489841°
Runways 2
Magnetic Variation 12.075° E

METAR

KVNY 131651Z 13003KT 10SM CLR 20/M13 A3004 RMK AO2 SLP165 T02001128

Decode

TAF

KVNY 131147Z 1312/1412 36007KT P6SM SKC FM132300 VRB03KT P6SM SKC

Decode

Departure Runways

ID Width Length Bearing (true) Bearing (mag) Surface Threshold Offset Overrun Length
16L 75 ft / 23 m 4,021 ft / 1,226 m 175.53° 163.46° Asphalt 1,430 ft / 436 m 0 ft / 0 m
16R 151 ft / 46 m 8,022 ft / 2,445 m 175.54° 163.47° Asphalt 1,430 ft / 436 m 151 ft / 46 m
34L 151 ft / 46 m 8,022 ft / 2,445 m 355.54° 343.47° Asphalt 0 ft / 0 m 151 ft / 46 m
34R 75 ft / 23 m 4,021 ft / 1,226 m 355.53° 343.46° Asphalt 0 ft / 0 m 0 ft / 0 m

KGYR

Details ICAO KGYR
Name Phoenix Goodyear
Region United States
Timezone America/Phoenix (UTC-7.0)
Stats Elevation 968 ft / 295 m (AMSL)
Location 33.423725° -112.374458°
Runways 1
Magnetic Variation 10.424° E

METAR

KGYR 131647Z 36007KT 10SM FEW250 13/M08 A3008

Decode

TAF

Not found

Destination Runways

ID Width Length Bearing (true) Bearing (mag) Surface Threshold Offset Overrun Length
03 151 ft / 46 m 8,509 ft / 2,594 m 39.46° 29.04° Asphalt 0 ft / 0 m 200 ft / 61 m
21 151 ft / 46 m 8,509 ft / 2,594 m 219.46° 209.04° Asphalt 2,100 ft / 640 m 0 ft / 0 m